createdAt,value
2018-03-30T00:00:23.177Z,997.53
2018-03-30T00:01:23.072Z,997.53
2018-03-30T00:02:23.171Z,997.56
2018-03-30T00:03:23.100Z,997.53
2018-03-30T00:04:23.136Z,997.57
2018-03-30T00:05:23.092Z,997.58
2018-03-30T00:06:23.181Z,997.52
2018-03-30T00:07:23.125Z,997.53
2018-03-30T00:08:23.098Z,997.53
2018-03-30T00:09:23.181Z,997.50
2018-03-30T00:10:23.106Z,997.53
2018-03-30T00:11:23.139Z,997.54
2018-03-30T00:12:23.133Z,997.55
2018-03-30T00:13:23.187Z,997.59
2018-03-30T00:14:23.105Z,997.60
2018-03-30T00:15:23.102Z,997.59
2018-03-30T00:16:23.196Z,997.62
2018-03-30T00:17:23.202Z,997.60
2018-03-30T00:18:23.147Z,997.59
2018-03-30T00:19:23.197Z,997.60
2018-03-30T00:20:23.144Z,997.61
2018-03-30T00:21:23.168Z,997.52
2018-03-30T00:22:23.152Z,997.55
2018-03-30T00:23:23.192Z,997.53
2018-03-30T00:24:23.146Z,997.51
2018-03-30T00:25:23.144Z,997.50
2018-03-30T00:26:23.208Z,997.51
2018-03-30T00:27:23.186Z,997.50
2018-03-30T00:28:23.153Z,997.48
2018-03-30T00:29:23.193Z,997.53
2018-03-30T00:30:23.088Z,997.54
2018-03-30T00:31:23.195Z,997.55
2018-03-30T00:32:23.203Z,997.52
2018-03-30T00:33:23.158Z,997.49
2018-03-30T00:34:23.120Z,997.48
2018-03-30T00:35:23.151Z,997.45
2018-03-30T00:36:23.162Z,997.44
2018-03-30T00:37:23.152Z,997.45
2018-03-30T00:38:23.095Z,997.40
2018-03-30T00:39:23.207Z,997.40
2018-03-30T00:40:23.217Z,997.40
2018-03-30T00:41:23.091Z,997.39
2018-03-30T00:42:23.112Z,997.42
2018-03-30T00:43:23.120Z,997.43
2018-03-30T00:44:23.156Z,997.45
2018-03-30T00:45:23.093Z,997.41
2018-03-30T00:46:23.117Z,997.41
2018-03-30T00:47:23.207Z,997.42
2018-03-30T00:48:23.155Z,997.41
2018-03-30T00:49:23.220Z,997.38
2018-03-30T00:50:23.101Z,997.36
2018-03-30T00:51:23.164Z,997.37
2018-03-30T00:52:23.097Z,997.39
2018-03-30T00:53:23.204Z,997.34
2018-03-30T00:54:23.164Z,997.33
2018-03-30T00:55:23.131Z,997.29
2018-03-30T00:56:23.103Z,997.33
2018-03-30T00:57:23.190Z,997.34
2018-03-30T00:58:23.165Z,997.29
2018-03-30T00:59:23.219Z,997.31
2018-03-30T01:00:23.292Z,997.29
2018-03-30T01:01:23.220Z,997.30
2018-03-30T01:02:23.169Z,997.28
2018-03-30T01:03:23.169Z,997.31
2018-03-30T01:04:23.250Z,997.33
2018-03-30T01:05:23.171Z,997.29
2018-03-30T01:06:23.132Z,997.28
2018-03-30T01:07:23.223Z,997.29
2018-03-30T01:08:23.132Z,997.30
2018-03-30T01:09:23.217Z,997.31
2018-03-30T01:10:23.140Z,997.31
2018-03-30T01:11:23.113Z,997.30
2018-03-30T01:12:23.127Z,997.32
2018-03-30T01:13:23.222Z,997.28
2018-03-30T01:14:23.225Z,997.29
2018-03-30T01:15:23.108Z,997.29
2018-03-30T01:16:23.110Z,997.24
2018-03-30T01:17:23.226Z,997.28
2018-03-30T01:18:23.229Z,997.22
2018-03-30T01:19:23.217Z,997.21
2018-03-30T01:20:23.229Z,997.21
2018-03-30T01:21:23.119Z,997.22
2018-03-30T01:22:23.182Z,997.20
2018-03-30T01:23:23.149Z,997.20
2018-03-30T01:24:23.184Z,997.21
2018-03-30T01:25:23.148Z,997.16
2018-03-30T01:26:23.118Z,997.20
2018-03-30T01:27:23.114Z,997.17
2018-03-30T01:28:23.237Z,997.16
2018-03-30T01:29:23.124Z,997.13
2018-03-30T01:30:23.235Z,997.10
2018-03-30T01:31:23.238Z,997.11
2018-03-30T01:32:23.242Z,997.09
2018-03-30T01:33:23.121Z,997.11
2018-03-30T01:34:23.233Z,997.09
2018-03-30T01:35:23.153Z,997.11
2018-03-30T01:36:23.232Z,997.08
2018-03-30T01:37:23.184Z,997.08
2018-03-30T01:38:23.154Z,997.08
2018-03-30T01:39:23.196Z,997.07
2018-03-30T01:40:23.234Z,997.09
2018-03-30T01:41:23.164Z,997.08
2018-03-30T01:42:23.195Z,997.05
2018-03-30T01:43:23.239Z,997.07
2018-03-30T01:44:23.154Z,997.07
2018-03-30T01:45:23.187Z,997.01
2018-03-30T01:46:23.250Z,997.08
2018-03-30T01:47:23.160Z,997.08
2018-03-30T01:48:23.252Z,997.08
2018-03-30T01:49:23.153Z,997.04
2018-03-30T01:50:23.168Z,997.05
2018-03-30T01:51:23.169Z,997.04
2018-03-30T01:52:23.253Z,997.01
2018-03-30T01:53:23.131Z,997.02
2018-03-30T01:54:23.157Z,996.98
2018-03-30T01:55:23.163Z,996.94
2018-03-30T01:56:23.160Z,996.92
2018-03-30T01:57:23.246Z,996.89
2018-03-30T01:58:23.208Z,996.88
2018-03-30T01:59:23.244Z,996.85
2018-03-30T02:00:23.203Z,996.87
2018-03-30T02:01:23.142Z,996.80
2018-03-30T02:02:23.143Z,996.84
2018-03-30T02:03:23.253Z,996.83
2018-03-30T02:04:23.203Z,996.82
2018-03-30T02:05:23.213Z,996.81
2018-03-30T02:06:23.210Z,996.84
2018-03-30T02:07:23.260Z,996.84
2018-03-30T02:08:23.228Z,996.83
2018-03-30T02:09:23.262Z,996.80
2018-03-30T02:10:23.209Z,996.83
2018-03-30T02:11:23.237Z,996.80
2018-03-30T02:12:23.257Z,996.80
2018-03-30T02:13:23.263Z,996.76
2018-03-30T02:14:23.261Z,996.76
2018-03-30T02:15:23.234Z,996.80
2018-03-30T02:16:23.149Z,996.78
2018-03-30T02:17:23.173Z,996.76
2018-03-30T02:18:23.152Z,996.74
2018-03-30T02:19:23.175Z,996.79
2018-03-30T02:20:23.268Z,996.77
2018-03-30T02:21:23.220Z,996.77
2018-03-30T02:22:23.273Z,996.72
2018-03-30T02:23:23.187Z,996.71
2018-03-30T02:24:23.224Z,996.67
2018-03-30T02:25:23.275Z,996.68
2018-03-30T02:26:23.180Z,996.67
2018-03-30T02:27:23.221Z,996.65
2018-03-30T02:28:23.272Z,996.67
2018-03-30T02:29:23.222Z,996.66
2018-03-30T02:30:23.160Z,996.67
2018-03-30T02:31:23.164Z,996.67
2018-03-30T02:32:23.222Z,996.66
2018-03-30T02:33:23.160Z,996.67
2018-03-30T02:34:23.225Z,996.66
2018-03-30T02:35:23.223Z,996.71
2018-03-30T02:36:23.231Z,996.68
2018-03-30T02:37:23.233Z,996.68
2018-03-30T02:38:23.169Z,996.66
2018-03-30T02:39:23.272Z,996.64
2018-03-30T02:40:23.192Z,996.67
2018-03-30T02:41:23.160Z,996.67
2018-03-30T02:42:23.192Z,996.64
2018-03-30T02:43:23.271Z,996.70
2018-03-30T02:44:23.167Z,996.68
2018-03-30T02:45:27.549Z,996.68
2018-03-30T02:46:23.162Z,996.68
2018-03-30T02:47:23.169Z,996.64
2018-03-30T02:48:23.291Z,996.68
2018-03-30T02:49:23.260Z,996.64
2018-03-30T02:50:23.287Z,996.65
2018-03-30T02:51:23.326Z,996.64
2018-03-30T02:52:23.252Z,996.66
2018-03-30T02:53:23.235Z,996.70
2018-03-30T02:54:23.264Z,996.64
2018-03-30T02:55:23.242Z,996.60
2018-03-30T02:56:23.235Z,996.59
2018-03-30T02:57:23.182Z,996.58
2018-03-30T02:58:23.264Z,996.57
2018-03-30T02:59:23.239Z,996.54
2018-03-30T03:00:23.237Z,996.49
2018-03-30T03:01:23.266Z,996.49
2018-03-30T03:02:23.247Z,996.46
2018-03-30T03:03:23.298Z,996.46
2018-03-30T03:04:23.203Z,996.45
2018-03-30T03:05:23.305Z,996.43
2018-03-30T03:06:23.249Z,996.39
2018-03-30T03:07:23.215Z,996.37
2018-03-30T03:08:23.254Z,996.36
2018-03-30T03:09:23.251Z,996.35
2018-03-30T03:10:23.311Z,996.40
2018-03-30T03:11:23.247Z,996.39
2018-03-30T03:12:23.210Z,996.39
2018-03-30T03:13:23.302Z,996.38
2018-03-30T03:14:23.295Z,996.37
2018-03-30T03:15:23.294Z,996.33
2018-03-30T03:16:23.187Z,996.34
2018-03-30T03:17:23.297Z,996.33
2018-03-30T03:18:23.221Z,996.27
2018-03-30T03:19:23.259Z,996.30
2018-03-30T03:20:23.308Z,996.29
2018-03-30T03:21:23.192Z,996.25
2018-03-30T03:22:23.252Z,996.27
2018-03-30T03:23:23.224Z,996.33
2018-03-30T03:24:23.251Z,996.29
2018-03-30T03:25:23.219Z,996.25
2018-03-30T03:26:23.261Z,996.27
2018-03-30T03:27:23.195Z,996.23
2018-03-30T03:28:23.225Z,996.23
2018-03-30T03:29:23.201Z,996.25
2018-03-30T03:30:23.228Z,996.26
2018-03-30T03:31:23.199Z,996.27
2018-03-30T03:32:23.226Z,996.23
2018-03-30T03:33:23.308Z,996.27
2018-03-30T03:34:23.325Z,996.27
2018-03-30T03:35:23.225Z,996.21
2018-03-30T03:36:23.266Z,996.25
2018-03-30T03:37:23.308Z,996.25
2018-03-30T03:38:23.224Z,996.25
2018-03-30T03:39:23.230Z,996.23
2018-03-30T03:40:23.319Z,996.18
2018-03-30T03:41:23.370Z,996.20
2018-03-30T03:42:23.264Z,996.24
2018-03-30T03:43:23.291Z,996.24
2018-03-30T03:44:23.271Z,996.23
2018-03-30T03:45:23.269Z,996.20
2018-03-30T03:46:23.310Z,996.19
2018-03-30T03:47:23.236Z,996.20
2018-03-30T03:48:23.272Z,996.20
2018-03-30T03:49:23.206Z,996.22
2018-03-30T03:50:23.274Z,996.17
2018-03-30T03:51:23.210Z,996.20
2018-03-30T03:52:23.270Z,996.21
2018-03-30T03:53:23.240Z,996.20
2018-03-30T03:54:23.228Z,996.22
2018-03-30T03:55:23.324Z,996.23
2018-03-30T03:56:23.325Z,996.20
2018-03-30T03:57:23.234Z,996.18
2018-03-30T03:58:23.333Z,996.21
2018-03-30T03:59:23.239Z,996.18
2018-03-30T04:00:23.244Z,996.18
2018-03-30T04:01:23.333Z,996.19
2018-03-30T04:02:23.212Z,996.23
2018-03-30T04:03:23.283Z,996.22
2018-03-30T04:04:23.331Z,996.25
2018-03-30T04:05:23.246Z,996.23
2018-03-30T04:06:23.244Z,996.22
2018-03-30T04:07:23.336Z,996.23
2018-03-30T04:08:23.215Z,996.20
2018-03-30T04:09:23.332Z,996.23
2018-03-30T04:10:23.253Z,996.19
2018-03-30T04:11:23.311Z,996.21
2018-03-30T04:12:23.284Z,996.20
2018-03-30T04:13:23.315Z,996.19
2018-03-30T04:14:23.289Z,996.17
2018-03-30T04:15:23.221Z,996.17
2018-03-30T04:16:23.251Z,996.20
2018-03-30T04:17:23.251Z,996.20
2018-03-30T04:18:23.294Z,996.22
2018-03-30T04:19:23.258Z,996.21
2018-03-30T04:20:23.339Z,996.18
2018-03-30T04:21:23.343Z,996.15
2018-03-30T04:22:23.249Z,996.23
2018-03-30T04:23:23.314Z,996.20
2018-03-30T04:24:23.335Z,996.23
2018-03-30T04:25:23.319Z,996.18
2018-03-30T04:26:23.250Z,996.24
2018-03-30T04:27:23.260Z,996.23
2018-03-30T04:28:23.234Z,996.23
2018-03-30T04:29:23.236Z,996.20
2018-03-30T04:30:23.252Z,996.21
2018-03-30T04:31:23.264Z,996.17
2018-03-30T04:32:23.352Z,996.15
2018-03-30T04:33:23.324Z,996.15
2018-03-30T04:34:23.257Z,996.13
2018-03-30T04:35:23.392Z,996.19
2018-03-30T04:36:23.235Z,996.18
2018-03-30T04:37:23.259Z,996.21
2018-03-30T04:38:23.234Z,996.20
2018-03-30T04:39:23.236Z,996.25
2018-03-30T04:40:23.242Z,996.23
2018-03-30T04:41:23.326Z,996.25
2018-03-30T04:42:23.358Z,996.28
2018-03-30T04:43:23.356Z,996.23
2018-03-30T04:44:23.304Z,996.22
2018-03-30T04:45:23.276Z,996.23
2018-03-30T04:46:23.242Z,996.21
2018-03-30T04:47:23.327Z,996.21
2018-03-30T04:48:23.363Z,996.23
2018-03-30T04:49:23.357Z,996.23
2018-03-30T04:50:23.350Z,996.25
2018-03-30T04:51:23.316Z,996.25
2018-03-30T04:52:23.356Z,996.20
2018-03-30T04:53:23.310Z,996.21
2018-03-30T04:54:23.332Z,996.19
2018-03-30T04:55:23.305Z,996.22
2018-03-30T04:56:23.366Z,996.22
2018-03-30T04:57:23.273Z,996.24
2018-03-30T04:58:23.281Z,996.22
2018-03-30T04:59:23.253Z,996.21
2018-03-30T05:00:23.283Z,996.24
2018-03-30T05:01:23.245Z,996.23
2018-03-30T05:02:23.356Z,996.23
2018-03-30T05:03:23.326Z,996.22
2018-03-30T05:04:23.259Z,996.21
2018-03-30T05:05:23.289Z,996.23
2018-03-30T05:06:23.359Z,996.24
2018-03-30T05:07:23.257Z,996.21
2018-03-30T05:08:23.369Z,996.24
2018-03-30T05:09:23.376Z,996.21
2018-03-30T05:10:23.325Z,996.20
2018-03-30T05:11:23.365Z,996.21
2018-03-30T05:12:23.375Z,996.18
2018-03-30T05:13:23.375Z,996.16
2018-03-30T05:14:23.289Z,996.18
2018-03-30T05:15:23.319Z,996.11
2018-03-30T05:16:23.378Z,996.15
2018-03-30T05:17:23.281Z,996.14
2018-03-30T05:18:23.379Z,996.17
2018-03-30T05:19:23.372Z,996.12
2018-03-30T05:20:23.374Z,996.10
2018-03-30T05:21:23.386Z,996.12
2018-03-30T05:22:23.381Z,996.08
2018-03-30T05:23:23.383Z,996.12
2018-03-30T05:24:23.257Z,996.07
2018-03-30T05:25:23.321Z,996.10
2018-03-30T05:26:23.334Z,996.11
2018-03-30T05:27:23.377Z,996.12
2018-03-30T05:28:23.296Z,996.09
2018-03-30T05:29:23.320Z,996.11
2018-03-30T05:30:23.324Z,996.12
2018-03-30T05:31:23.321Z,996.12
2018-03-30T05:32:23.296Z,996.12
2018-03-30T05:33:23.376Z,996.14
2018-03-30T05:34:23.385Z,996.11
2018-03-30T05:35:23.296Z,996.11
2018-03-30T05:36:23.294Z,996.07
2018-03-30T05:37:23.369Z,996.09
2018-03-30T05:38:23.359Z,996.04
2018-03-30T05:39:23.387Z,996.08
2018-03-30T05:40:23.360Z,996.08
2018-03-30T05:41:23.365Z,996.05
2018-03-30T05:42:23.358Z,996.00
2018-03-30T05:43:23.267Z,996.00
2018-03-30T05:44:23.328Z,996.02
2018-03-30T05:45:23.337Z,996.04
2018-03-30T05:46:23.346Z,996.04
2018-03-30T05:47:23.361Z,996.02
2018-03-30T05:48:24.282Z,996.04
2018-03-30T05:49:23.369Z,996.05
2018-03-30T05:50:23.366Z,996.03
2018-03-30T05:51:23.308Z,996.00
2018-03-30T05:52:23.308Z,996.03
2018-03-30T05:53:23.278Z,996.03
2018-03-30T05:54:23.337Z,996.04
2018-03-30T05:55:23.304Z,996.01
2018-03-30T05:56:23.300Z,996.04
2018-03-30T05:57:23.398Z,996.05
2018-03-30T05:58:23.273Z,996.06
2018-03-30T05:59:23.373Z,996.04
2018-03-30T06:00:23.373Z,996.01
2018-03-30T06:01:23.398Z,996.09
2018-03-30T06:02:23.448Z,996.05
2018-03-30T06:03:23.356Z,996.09
2018-03-30T06:04:23.346Z,996.07
2018-03-30T06:05:23.377Z,996.06
2018-03-30T06:06:23.347Z,996.08
2018-03-30T06:07:23.349Z,996.09
2018-03-30T06:08:23.376Z,996.10
2018-03-30T06:09:23.407Z,996.08
2018-03-30T06:10:23.351Z,996.06
2018-03-30T06:11:23.399Z,996.08
2018-03-30T06:12:23.403Z,996.01
2018-03-30T06:13:23.368Z,996.01
2018-03-30T06:14:23.410Z,996.03
2018-03-30T06:15:23.375Z,996.02
2018-03-30T06:16:23.301Z,996.00
2018-03-30T06:17:23.351Z,996.05
2018-03-30T06:18:23.294Z,996.04
2018-03-30T06:19:23.325Z,996.07
2018-03-30T06:20:23.346Z,996.02
2018-03-30T06:21:23.326Z,996.00
2018-03-30T06:22:23.404Z,996.02
2018-03-30T06:23:23.413Z,996.04
2018-03-30T06:24:23.354Z,996.05
2018-03-30T06:25:23.291Z,996.06
2018-03-30T06:26:23.361Z,996.03
2018-03-30T06:27:23.304Z,996.01
2018-03-30T06:28:23.324Z,996.06
2018-03-30T06:29:23.381Z,996.03
2018-03-30T06:30:23.413Z,996.03
2018-03-30T06:31:23.332Z,996.02
2018-03-30T06:32:23.395Z,996.00
2018-03-30T06:33:23.414Z,996.01
2018-03-30T06:34:23.332Z,996.00
2018-03-30T06:35:23.334Z,996.01
2018-03-30T06:36:23.368Z,996.02
2018-03-30T06:37:23.360Z,996.02
2018-03-30T06:38:23.332Z,996.05
2018-03-30T06:39:23.427Z,996.01
2018-03-30T06:40:23.309Z,996.08
2018-03-30T06:41:23.392Z,996.11
2018-03-30T06:42:23.421Z,996.05
2018-03-30T06:43:23.399Z,996.07
2018-03-30T06:44:23.307Z,996.06
2018-03-30T06:45:23.374Z,996.08
2018-03-30T06:46:23.339Z,996.09
2018-03-30T06:47:23.365Z,996.09
2018-03-30T06:48:23.399Z,996.12
2018-03-30T06:49:23.396Z,996.13
2018-03-30T06:50:23.371Z,996.11
2018-03-30T06:51:23.422Z,996.11
2018-03-30T06:52:23.427Z,996.17
2018-03-30T06:53:23.337Z,996.20
2018-03-30T06:54:23.313Z,996.15
2018-03-30T06:55:23.427Z,996.16
2018-03-30T06:56:23.344Z,996.17
2018-03-30T06:57:23.431Z,996.16
2018-03-30T06:58:23.318Z,996.19
2018-03-30T06:59:23.316Z,996.16
2018-03-30T07:00:23.313Z,996.19
2018-03-30T07:01:23.342Z,996.21
2018-03-30T07:02:23.435Z,996.22
2018-03-30T07:03:23.431Z,996.15
2018-03-30T07:04:23.351Z,996.18
2018-03-30T07:05:23.428Z,996.22
2018-03-30T07:06:23.346Z,996.14
2018-03-30T07:07:23.442Z,996.11
2018-03-30T07:08:23.323Z,996.11
2018-03-30T07:09:23.331Z,996.13
2018-03-30T07:10:23.382Z,996.10
2018-03-30T07:11:23.319Z,996.13
2018-03-30T07:12:23.443Z,996.14
2018-03-30T07:13:23.442Z,996.10
2018-03-30T07:14:23.417Z,996.07
2018-03-30T07:15:23.415Z,996.07
2018-03-30T07:16:23.383Z,996.05
2018-03-30T07:17:23.418Z,996.06
2018-03-30T07:18:23.440Z,996.08
2018-03-30T07:19:23.449Z,996.05
2018-03-30T07:20:23.335Z,996.04
2018-03-30T07:21:23.446Z,996.05
2018-03-30T07:22:23.332Z,996.06
2018-03-30T07:23:23.331Z,996.02
2018-03-30T07:24:23.329Z,996.06
2018-03-30T07:25:23.389Z,996.07
2018-03-30T07:26:23.365Z,996.06
2018-03-30T07:27:23.359Z,996.07
2018-03-30T07:28:23.363Z,996.02
2018-03-30T07:29:23.426Z,996.02
2018-03-30T07:30:23.333Z,995.99
2018-03-30T07:31:23.343Z,995.99
2018-03-30T07:32:23.431Z,996.00
2018-03-30T07:33:23.364Z,996.00
2018-03-30T07:34:23.397Z,996.04
2018-03-30T07:35:23.458Z,996.03
2018-03-30T07:36:23.459Z,996.01
2018-03-30T07:37:23.382Z,995.99
2018-03-30T07:38:23.503Z,995.98
2018-03-30T07:39:23.375Z,996.00
2018-03-30T07:40:23.463Z,995.98
2018-03-30T07:41:23.388Z,995.99
2018-03-30T07:42:23.460Z,995.97
2018-03-30T07:43:23.463Z,995.96
2018-03-30T07:44:23.342Z,995.91
2018-03-30T07:45:23.462Z,995.92
2018-03-30T07:46:23.438Z,995.88
2018-03-30T07:47:23.350Z,995.86
2018-03-30T07:48:23.351Z,995.85
2018-03-30T07:49:23.438Z,995.87
2018-03-30T07:50:23.436Z,995.85
2018-03-30T07:51:23.418Z,995.87
2018-03-30T07:52:23.459Z,995.81
2018-03-30T07:53:23.462Z,995.87
2018-03-30T07:54:23.418Z,995.88
2018-03-30T07:55:23.441Z,995.90
2018-03-30T07:56:23.463Z,995.92
2018-03-30T07:57:23.440Z,995.86
2018-03-30T07:58:23.349Z,995.79
2018-03-30T07:59:23.424Z,995.75
2018-03-30T08:00:23.412Z,995.73
2018-03-30T08:01:23.384Z,995.79
2018-03-30T08:02:23.465Z,995.71
2018-03-30T08:03:23.446Z,995.73
2018-03-30T08:04:23.468Z,995.69
2018-03-30T08:05:23.479Z,995.66
2018-03-30T08:06:23.351Z,995.66
2018-03-30T08:07:23.391Z,995.64
2018-03-30T08:08:23.475Z,995.60
2018-03-30T08:09:23.481Z,995.59
2018-03-30T08:10:23.451Z,995.64
2018-03-30T08:11:23.425Z,995.59
2018-03-30T08:12:23.450Z,995.62
2018-03-30T08:13:23.419Z,995.59
2018-03-30T08:14:23.388Z,995.66
2018-03-30T08:15:23.363Z,995.59
2018-03-30T08:16:23.434Z,995.60
2018-03-30T08:17:23.430Z,995.61
2018-03-30T08:18:23.373Z,995.57
2018-03-30T08:19:23.357Z,995.61
2018-03-30T08:20:23.449Z,995.59
2018-03-30T08:21:23.432Z,995.56
2018-03-30T08:22:23.437Z,995.58
2018-03-30T08:23:23.436Z,995.57
2018-03-30T08:24:23.481Z,995.55
2018-03-30T08:25:23.482Z,995.60
2018-03-30T08:26:23.478Z,995.56
2018-03-30T08:27:23.367Z,995.58
2018-03-30T08:28:23.488Z,995.53
2018-03-30T08:29:23.401Z,995.51
2018-03-30T08:30:23.457Z,995.50
2018-03-30T08:31:23.484Z,995.54
2018-03-30T08:32:23.431Z,995.49
2018-03-30T08:33:23.398Z,995.49
2018-03-30T08:34:23.464Z,995.48
2018-03-30T08:35:23.431Z,995.50
2018-03-30T08:36:23.443Z,995.45
2018-03-30T08:37:23.404Z,995.42
2018-03-30T08:38:23.376Z,995.43
2018-03-30T08:39:23.386Z,995.42
2018-03-30T08:40:23.461Z,995.37
2018-03-30T08:41:23.525Z,995.32
2018-03-30T08:42:23.409Z,995.33
2018-03-30T08:43:23.470Z,995.32
2018-03-30T08:44:23.492Z,995.31
2018-03-30T08:45:23.500Z,995.30
2018-03-30T08:46:23.442Z,995.27
2018-03-30T08:47:23.450Z,995.24
2018-03-30T08:48:23.389Z,995.24
2018-03-30T08:49:23.511Z,995.22
2018-03-30T08:50:23.503Z,995.23
2018-03-30T08:51:23.385Z,995.22
2018-03-30T08:52:23.392Z,995.24
2018-03-30T08:53:23.458Z,995.25
2018-03-30T08:54:23.531Z,995.18
2018-03-30T08:55:23.494Z,995.15
2018-03-30T08:56:23.393Z,995.08
2018-03-30T08:57:23.513Z,995.11
2018-03-30T08:58:23.416Z,995.07
2018-03-30T08:59:23.388Z,995.04
2018-03-30T09:00:23.504Z,995.02
2018-03-30T09:01:23.510Z,995.03
2018-03-30T09:02:23.456Z,995.04
2018-03-30T09:03:23.508Z,994.99
2018-03-30T09:04:23.480Z,995.01
2018-03-30T09:05:23.417Z,994.99
2018-03-30T09:06:23.488Z,994.99
2018-03-30T09:07:23.395Z,994.95
2018-03-30T09:08:23.455Z,994.96
2018-03-30T09:09:23.454Z,994.93
2018-03-30T09:10:23.519Z,994.91
2018-03-30T09:11:23.450Z,994.92
2018-03-30T09:12:23.441Z,994.88
2018-03-30T09:13:23.395Z,994.86
2018-03-30T09:14:23.405Z,994.89
2018-03-30T09:15:23.512Z,994.84
2018-03-30T09:16:23.398Z,994.82
2018-03-30T09:17:23.437Z,994.86
2018-03-30T09:18:23.463Z,994.79
2018-03-30T09:19:23.520Z,994.81
2018-03-30T09:20:23.517Z,994.83
2018-03-30T09:21:23.464Z,994.81
2018-03-30T09:22:23.473Z,994.82
2018-03-30T09:23:23.411Z,994.81
2018-03-30T09:24:23.517Z,994.79
2018-03-30T09:25:23.528Z,994.76
2018-03-30T09:26:23.433Z,994.76
2018-03-30T09:27:23.462Z,994.76
2018-03-30T09:28:23.433Z,994.72
2018-03-30T09:29:23.403Z,994.73
2018-03-30T09:30:23.403Z,994.74
2018-03-30T09:31:23.504Z,994.63
2018-03-30T09:32:23.423Z,994.60
2018-03-30T09:33:23.419Z,994.60
2018-03-30T09:34:23.524Z,994.62
2018-03-30T09:35:23.417Z,994.62
2018-03-30T09:36:23.481Z,994.59
2018-03-30T09:37:23.526Z,994.56
2018-03-30T09:38:23.484Z,994.58
2018-03-30T09:39:23.431Z,994.56
2018-03-30T09:40:23.415Z,994.58
2018-03-30T09:41:23.483Z,994.54
2018-03-30T09:42:23.478Z,994.51
2018-03-30T09:43:23.449Z,994.54
2018-03-30T09:44:23.536Z,994.49
2018-03-30T09:45:23.529Z,994.48
2018-03-30T09:46:23.455Z,994.30
2018-03-30T09:47:23.547Z,994.37
2018-03-30T09:48:23.422Z,994.39
2018-03-30T09:49:23.492Z,994.37
2018-03-30T09:50:23.507Z,994.35
2018-03-30T09:51:23.421Z,994.31
2018-03-30T09:52:23.513Z,994.35
2018-03-30T09:53:23.541Z,994.33
2018-03-30T09:54:23.481Z,994.34
2018-03-30T09:55:23.484Z,994.31
2018-03-30T09:56:23.538Z,994.29
2018-03-30T09:57:23.466Z,994.30
2018-03-30T09:58:23.456Z,994.27
2018-03-30T09:59:23.432Z,994.28
2018-03-30T10:00:23.520Z,994.27
2018-03-30T10:01:23.425Z,994.27
2018-03-30T10:02:23.539Z,994.25
2018-03-30T10:03:23.517Z,994.25
2018-03-30T10:04:23.600Z,994.22
2018-03-30T10:05:23.456Z,994.21
2018-03-30T10:06:23.493Z,994.22
2018-03-30T10:07:23.489Z,994.17
2018-03-30T10:08:23.493Z,994.13
2018-03-30T10:09:23.556Z,994.11
2018-03-30T10:10:23.546Z,994.13
2018-03-30T10:11:23.441Z,994.14
2018-03-30T10:12:23.430Z,994.12
2018-03-30T10:13:23.429Z,994.08
2018-03-30T10:14:23.527Z,994.07
2018-03-30T10:15:23.435Z,994.07
2018-03-30T10:16:23.436Z,994.05
2018-03-30T10:17:23.468Z,994.02
2018-03-30T10:18:23.442Z,994.05
2018-03-30T10:19:23.491Z,994.01
2018-03-30T10:20:23.533Z,994.00
2018-03-30T10:21:23.440Z,993.96
2018-03-30T10:22:23.443Z,993.98
2018-03-30T10:23:23.449Z,993.94
2018-03-30T10:24:23.501Z,993.97
2018-03-30T10:25:23.503Z,993.99
2018-03-30T10:26:23.560Z,993.91
2018-03-30T10:27:23.444Z,993.97
2018-03-30T10:28:23.538Z,993.88
2018-03-30T10:29:23.564Z,993.86
2018-03-30T10:30:23.514Z,993.82
2018-03-30T10:31:23.449Z,993.78
2018-03-30T10:32:23.559Z,993.72
2018-03-30T10:33:23.512Z,993.79
2018-03-30T10:34:23.531Z,993.77
2018-03-30T10:35:23.542Z,993.72
2018-03-30T10:36:23.522Z,993.65
2018-03-30T10:37:23.563Z,993.70
2018-03-30T10:38:23.535Z,993.66
2018-03-30T10:39:23.542Z,993.67
2018-03-30T10:40:23.463Z,993.63
2018-03-30T10:42:23.545Z,993.62
2018-03-30T10:43:23.536Z,993.60
2018-03-30T10:44:23.454Z,993.55
2018-03-30T10:45:23.545Z,993.59
2018-03-30T10:46:23.479Z,993.61
2018-03-30T10:47:23.574Z,993.56
2018-03-30T10:48:23.575Z,993.57
2018-03-30T10:49:23.574Z,993.56
2018-03-30T10:50:23.478Z,993.52
2018-03-30T10:51:23.467Z,993.52
2018-03-30T10:52:23.464Z,993.45
2018-03-30T10:53:23.569Z,993.47
2018-03-30T10:54:23.549Z,993.44
2018-03-30T10:55:23.488Z,993.42
2018-03-30T10:56:23.521Z,993.40
2018-03-30T10:57:23.579Z,993.37
2018-03-30T10:58:23.490Z,993.31
2018-03-30T10:59:23.578Z,993.32
2018-03-30T11:00:23.470Z,993.26
2018-03-30T11:01:23.582Z,993.28
2018-03-30T11:02:23.461Z,993.33
2018-03-30T11:03:23.525Z,993.25
2018-03-30T11:04:23.468Z,993.26
2018-03-30T11:05:23.524Z,993.23
2018-03-30T11:06:23.465Z,993.27
2018-03-30T11:07:23.466Z,993.18
2018-03-30T11:08:23.533Z,993.21
2018-03-30T11:09:23.578Z,993.19
2018-03-30T11:10:23.469Z,993.14
2018-03-30T11:11:23.526Z,993.13
2018-03-30T11:12:23.584Z,993.14
2018-03-30T11:13:23.500Z,993.13
2018-03-30T11:14:23.469Z,993.05
2018-03-30T11:15:23.480Z,993.04
2018-03-30T11:16:23.592Z,993.06
2018-03-30T11:17:23.568Z,993.04
2018-03-30T11:18:23.532Z,992.98
2018-03-30T11:19:23.591Z,993.03
2018-03-30T11:20:23.560Z,992.97
2018-03-30T11:21:23.540Z,992.97
2018-03-30T11:22:23.489Z,993.00
2018-03-30T11:23:23.569Z,992.97
2018-03-30T11:24:23.483Z,992.94
2018-03-30T11:25:23.569Z,992.86
2018-03-30T11:26:23.538Z,992.85
2018-03-30T11:27:23.595Z,992.83
2018-03-30T11:28:23.599Z,992.80
2018-03-30T11:29:23.554Z,992.74
2018-03-30T11:30:23.593Z,992.75
2018-03-30T11:31:23.596Z,992.69
2018-03-30T11:32:23.597Z,992.72
2018-03-30T11:33:23.483Z,992.72
2018-03-30T11:34:23.482Z,992.68
2018-03-30T11:35:23.483Z,992.70
2018-03-30T11:36:23.599Z,992.71
2018-03-30T11:37:23.606Z,992.62
2018-03-30T11:38:23.608Z,992.64
2018-03-30T11:39:23.488Z,992.60
2018-03-30T11:40:23.611Z,992.55
2018-03-30T11:41:23.600Z,992.55
2018-03-30T11:42:23.558Z,992.53
2018-03-30T11:43:23.518Z,992.43
2018-03-30T11:44:23.494Z,992.43
2018-03-30T11:45:23.513Z,992.39
2018-03-30T11:46:23.499Z,992.32
2018-03-30T11:47:23.608Z,992.25
2018-03-30T11:48:23.492Z,992.25
2018-03-30T11:49:23.578Z,992.21
2018-03-30T11:50:23.533Z,992.15
2018-03-30T11:51:23.554Z,992.11
2018-03-30T11:52:23.582Z,992.02
2018-03-30T11:53:23.557Z,992.00
2018-03-30T11:54:23.494Z,992.01
2018-03-30T11:55:23.494Z,991.97
2018-03-30T11:57:23.567Z,991.89
2018-03-30T11:58:23.589Z,991.79
2018-03-30T11:59:23.610Z,991.86
2018-03-30T12:00:23.572Z,991.72
2018-03-30T12:01:23.527Z,991.77
2018-03-30T12:02:23.612Z,991.77
2018-03-30T12:03:23.560Z,991.73
2018-03-30T12:04:23.587Z,991.73
2018-03-30T12:05:23.617Z,991.67
2018-03-30T12:06:23.623Z,991.61
2018-03-30T12:07:23.577Z,991.60
2018-03-30T12:08:23.626Z,991.61
2018-03-30T12:09:23.592Z,991.59
2018-03-30T12:10:23.601Z,991.58
2018-03-30T12:11:23.566Z,991.48
2018-03-30T12:12:23.620Z,991.48
2018-03-30T12:13:23.567Z,991.44
2018-03-30T12:14:23.567Z,991.41
2018-03-30T12:15:23.565Z,991.43
2018-03-30T12:16:23.566Z,991.38
2018-03-30T12:17:23.537Z,991.36
2018-03-30T12:18:23.508Z,991.40
2018-03-30T12:19:23.536Z,991.34
2018-03-30T12:20:23.509Z,991.40
2018-03-30T12:21:23.519Z,991.40
2018-03-30T12:22:23.513Z,991.45
2018-03-30T12:23:23.511Z,991.42
2018-03-30T12:24:23.557Z,991.50
2018-03-30T12:25:23.578Z,991.49
2018-03-30T12:26:23.638Z,991.44
2018-03-30T12:27:23.524Z,991.52
2018-03-30T12:28:23.610Z,991.52
2018-03-30T12:29:23.517Z,991.56
2018-03-30T12:30:23.636Z,991.54